sensor_id;sensor_type;location;lat;lon;timestamp;P1;durP1;ratioP1;P2;durP2;ratioP2
9108;SDS011;4590;51.462;6.692;2023-03-01T00:00:39;12.83;;;5.70;;
9108;SDS011;4590;51.462;6.692;2023-03-01T00:03:04;7.87;;;5.20;;
9108;SDS011;4590;51.462;6.692;2023-03-01T00:05:30;8.57;;;5.90;;
9108;SDS011;4590;51.462;6.692;2023-03-01T00:07:55;9.30;;;5.77;;
9108;SDS011;4590;51.462;6.692;2023-03-01T00:10:21;8.73;;;5.93;;
9108;SDS011;4590;51.462;6.692;2023-03-01T00:12:46;7.33;;;4.93;;
9108;SDS011;4590;51.462;6.692;2023-03-01T00:15:11;9.07;;;5.60;;
9108;SDS011;4590;51.462;6.692;2023-03-01T00:17:37;8.87;;;5.30;;
9108;SDS011;4590;51.462;6.692;2023-03-01T00:20:02;9.03;;;6.07;;
9108;SDS011;4590;51.462;6.692;2023-03-01T00:22:28;11.00;;;5.95;;
9108;SDS011;4590;51.462;6.692;2023-03-01T00:24:54;9.13;;;5.93;;
9108;SDS011;4590;51.462;6.692;2023-03-01T00:27:19;8.50;;;5.40;;
9108;SDS011;4590;51.462;6.692;2023-03-01T00:29:44;10.73;;;6.00;;
9108;SDS011;4590;51.462;6.692;2023-03-01T00:32:10;7.80;;;5.43;;
9108;SDS011;4590;51.462;6.692;2023-03-01T00:34:35;8.80;;;5.43;;
9108;SDS011;4590;51.462;6.692;2023-03-01T00:37:00;9.23;;;5.73;;
9108;SDS011;4590;51.462;6.692;2023-03-01T00:39:30;8.55;;;5.55;;
9108;SDS011;4590;51.462;6.692;2023-03-01T00:41:56;7.93;;;5.60;;
9108;SDS011;4590;51.462;6.692;2023-03-01T00:44:21;9.27;;;5.90;;
9108;SDS011;4590;51.462;6.692;2023-03-01T00:46:46;9.13;;;5.87;;
9108;SDS011;4590;51.462;6.692;2023-03-01T00:49:12;9.33;;;6.50;;
9108;SDS011;4590;51.462;6.692;2023-03-01T00:51:38;10.07;;;5.97;;
9108;SDS011;4590;51.462;6.692;2023-03-01T00:54:07;8.45;;;5.82;;
9108;SDS011;4590;51.462;6.692;2023-03-01T00:56:33;9.63;;;6.00;;
9108;SDS011;4590;51.462;6.692;2023-03-01T00:58:58;11.27;;;6.87;;
9108;SDS011;4590;51.462;6.692;2023-03-01T01:01:25;9.07;;;5.83;;
9108;SDS011;4590;51.462;6.692;2023-03-01T01:04:01;8.43;;;6.03;;
9108;SDS011;4590;51.462;6.692;2023-03-01T01:06:35;12.82;;;6.78;;
9108;SDS011;4590;51.462;6.692;2023-03-01T01:09:04;8.10;;;5.88;;
9108;SDS011;4590;51.462;6.692;2023-03-01T01:11:32;8.43;;;5.72;;
9108;SDS011;4590;51.462;6.692;2023-03-01T01:13:58;11.95;;;6.32;;
9108;SDS011;4590;51.462;6.692;2023-03-01T01:16:25;10.50;;;6.57;;
9108;SDS011;4590;51.462;6.692;2023-03-01T01:18:51;10.05;;;6.40;;
9108;SDS011;4590;51.462;6.692;2023-03-01T01:21:18;9.98;;;6.40;;
9108;SDS011;4590;51.462;6.692;2023-03-01T01:23:46;11.70;;;7.03;;
9108;SDS011;4590;51.462;6.692;2023-03-01T01:26:19;9.93;;;6.30;;
9108;SDS011;4590;51.462;6.692;2023-03-01T01:28:46;9.23;;;6.32;;
9108;SDS011;4590;51.462;6.692;2023-03-01T01:31:12;8.40;;;6.22;;
9108;SDS011;4590;51.462;6.692;2023-03-01T01:33:38;8.77;;;6.00;;
9108;SDS011;4590;51.462;6.692;2023-03-01T01:36:07;9.53;;;6.40;;
9108;SDS011;4590;51.462;6.692;2023-03-01T01:38:33;9.20;;;5.75;;
9108;SDS011;4590;51.462;6.692;2023-03-01T01:40:59;8.18;;;6.35;;
9108;SDS011;4590;51.462;6.692;2023-03-01T01:43:26;11.00;;;6.70;;
9108;SDS011;4590;51.462;6.692;2023-03-01T01:45:57;9.68;;;6.47;;
9108;SDS011;4590;51.462;6.692;2023-03-01T01:48:28;8.55;;;6.25;;
9108;SDS011;4590;51.462;6.692;2023-03-01T01:51:05;12.90;;;6.38;;
9108;SDS011;4590;51.462;6.692;2023-03-01T01:53:34;10.88;;;7.20;;
9108;SDS011;4590;51.462;6.692;2023-03-01T01:58:27;8.82;;;6.38;;
9108;SDS011;4590;51.462;6.692;2023-03-01T02:00:54;10.48;;;6.68;;
9108;SDS011;4590;51.462;6.692;2023-03-01T02:03:22;9.60;;;6.87;;
9108;SDS011;4590;51.462;6.692;2023-03-01T02:08:18;11.23;;;7.10;;
9108;SDS011;4590;51.462;6.692;2023-03-01T02:10:45;12.77;;;6.20;;
9108;SDS011;4590;51.462;6.692;2023-03-01T02:13:11;11.32;;;7.45;;
9108;SDS011;4590;51.462;6.692;2023-03-01T02:15:38;9.73;;;6.57;;
9108;SDS011;4590;51.462;6.692;2023-03-01T02:18:05;10.57;;;6.20;;
9108;SDS011;4590;51.462;6.692;2023-03-01T02:23:36;9.48;;;6.07;;
9108;SDS011;4590;51.462;6.692;2023-03-01T02:26:14;9.60;;;6.70;;
9108;SDS011;4590;51.462;6.692;2023-03-01T02:28:54;9.65;;;6.25;;
9108;SDS011;4590;51.462;6.692;2023-03-01T02:31:20;9.33;;;5.83;;
9108;SDS011;4590;51.462;6.692;2023-03-01T02:34:04;9.15;;;5.75;;
9108;SDS011;4590;51.462;6.692;2023-03-01T02:36:34;9.88;;;6.43;;
9108;SDS011;4590;51.462;6.692;2023-03-01T02:39:03;10.30;;;6.32;;
9108;SDS011;4590;51.462;6.692;2023-03-01T02:41:32;11.38;;;6.72;;
9108;SDS011;4590;51.462;6.692;2023-03-01T02:44:00;9.88;;;6.60;;
9108;SDS011;4590;51.462;6.692;2023-03-01T02:46:26;8.32;;;6.13;;
9108;SDS011;4590;51.462;6.692;2023-03-01T02:48:53;10.77;;;5.80;;
9108;SDS011;4590;51.462;6.692;2023-03-01T02:51:24;10.68;;;6.30;;
9108;SDS011;4590;51.462;6.692;2023-03-01T02:54:06;8.60;;;6.53;;
9108;SDS011;4590;51.462;6.692;2023-03-01T02:56:44;10.32;;;6.40;;
9108;SDS011;4590;51.462;6.692;2023-03-01T02:59:13;8.70;;;6.63;;
9108;SDS011;4590;51.462;6.692;2023-03-01T03:01:40;10.00;;;7.30;;
9108;SDS011;4590;51.462;6.692;2023-03-01T03:04:08;10.82;;;7.32;;
9108;SDS011;4590;51.462;6.692;2023-03-01T03:06:35;11.45;;;6.35;;
9108;SDS011;4590;51.462;6.692;2023-03-01T03:09:00;10.87;;;6.77;;
9108;SDS011;4590;51.462;6.692;2023-03-01T03:11:26;9.20;;;6.00;;
9108;SDS011;4590;51.462;6.692;2023-03-01T03:13:51;9.33;;;6.30;;
9108;SDS011;4590;51.462;6.692;2023-03-01T03:16:17;10.93;;;6.23;;
9108;SDS011;4590;51.462;6.692;2023-03-01T03:18:43;8.55;;;6.10;;
9108;SDS011;4590;51.462;6.692;2023-03-01T03:21:09;11.20;;;7.10;;
9108;SDS011;4590;51.462;6.692;2023-03-01T03:23:36;9.77;;;6.85;;
9108;SDS011;4590;51.462;6.692;2023-03-01T03:26:02;12.43;;;7.40;;
9108;SDS011;4590;51.462;6.692;2023-03-01T03:28:29;8.80;;;5.90;;
9108;SDS011;4590;51.462;6.692;2023-03-01T03:30:59;10.57;;;6.30;;
9108;SDS011;4590;51.462;6.692;2023-03-01T03:33:28;9.00;;;6.85;;
9108;SDS011;4590;51.462;6.692;2023-03-01T03:35:54;11.05;;;7.18;;
9108;SDS011;4590;51.462;6.692;2023-03-01T03:38:20;12.63;;;7.70;;
9108;SDS011;4590;51.462;6.692;2023-03-01T03:41:00;10.48;;;7.30;;
9108;SDS011;4590;51.462;6.692;2023-03-01T03:43:27;10.48;;;6.55;;
9108;SDS011;4590;51.462;6.692;2023-03-01T03:45:53;10.18;;;6.90;;
9108;SDS011;4590;51.462;6.692;2023-03-01T03:48:19;13.80;;;7.70;;
9108;SDS011;4590;51.462;6.692;2023-03-01T03:50:49;10.73;;;7.03;;
9108;SDS011;4590;51.462;6.692;2023-03-01T03:53:15;11.20;;;6.97;;
9108;SDS011;4590;51.462;6.692;2023-03-01T03:55:41;10.50;;;6.97;;
9108;SDS011;4590;51.462;6.692;2023-03-01T03:58:07;12.07;;;7.70;;
9108;SDS011;4590;51.462;6.692;2023-03-01T04:00:35;12.15;;;6.75;;
9108;SDS011;4590;51.462;6.692;2023-03-01T04:03:09;9.07;;;6.32;;
9108;SDS011;4590;51.462;6.692;2023-03-01T04:05:35;12.57;;;7.72;;
9108;SDS011;4590;51.462;6.692;2023-03-01T04:08:01;10.77;;;6.97;;
9108;SDS011;4590;51.462;6.692;2023-03-01T04:10:33;11.93;;;7.00;;
9108;SDS011;4590;51.462;6.692;2023-03-01T04:13:11;16.05;;;6.97;;
9108;SDS011;4590;51.462;6.692;2023-03-01T04:15:37;9.68;;;6.75;;
9108;SDS011;4590;51.462;6.692;2023-03-01T04:18:03;10.05;;;6.80;;
9108;SDS011;4590;51.462;6.692;2023-03-01T04:20:31;10.05;;;7.07;;
9108;SDS011;4590;51.462;6.692;2023-03-01T04:23:06;11.18;;;7.50;;
9108;SDS011;4590;51.462;6.692;2023-03-01T04:25:41;10.32;;;6.70;;
9108;SDS011;4590;51.462;6.692;2023-03-01T04:28:19;11.15;;;6.70;;
9108;SDS011;4590;51.462;6.692;2023-03-01T04:30:46;10.48;;;6.93;;
9108;SDS011;4590;51.462;6.692;2023-03-01T04:33:11;11.13;;;7.23;;
9108;SDS011;4590;51.462;6.692;2023-03-01T04:35:37;10.80;;;7.07;;
9108;SDS011;4590;51.462;6.692;2023-03-01T04:38:04;13.23;;;7.10;;
9108;SDS011;4590;51.462;6.692;2023-03-01T04:40:30;11.65;;;7.28;;
9108;SDS011;4590;51.462;6.692;2023-03-01T04:42:55;12.30;;;8.23;;
9108;SDS011;4590;51.462;6.692;2023-03-01T04:45:20;9.67;;;6.63;;
9108;SDS011;4590;51.462;6.692;2023-03-01T04:47:46;8.53;;;6.30;;
9108;SDS011;4590;51.462;6.692;2023-03-01T04:50:13;11.45;;;7.07;;
9108;SDS011;4590;51.462;6.692;2023-03-01T04:52:40;10.13;;;7.32;;
9108;SDS011;4590;51.462;6.692;2023-03-01T04:55:05;9.93;;;7.00;;
9108;SDS011;4590;51.462;6.692;2023-03-01T04:57:31;10.65;;;6.70;;
9108;SDS011;4590;51.462;6.692;2023-03-01T04:59:57;11.35;;;7.63;;
9108;SDS011;4590;51.462;6.692;2023-03-01T05:02:22;11.30;;;7.20;;
9108;SDS011;4590;51.462;6.692;2023-03-01T05:04:48;10.07;;;6.80;;
9108;SDS011;4590;51.462;6.692;2023-03-01T05:07:13;9.77;;;6.87;;
9108;SDS011;4590;51.462;6.692;2023-03-01T05:09:44;12.40;;;7.60;;
9108;SDS011;4590;51.462;6.692;2023-03-01T05:12:10;10.25;;;6.68;;
9108;SDS011;4590;51.462;6.692;2023-03-01T05:14:35;11.43;;;7.47;;
9108;SDS011;4590;51.462;6.692;2023-03-01T05:17:00;9.57;;;6.43;;
9108;SDS011;4590;51.462;6.692;2023-03-01T05:19:29;10.70;;;7.22;;
9108;SDS011;4590;51.462;6.692;2023-03-01T05:21:55;11.45;;;7.00;;
9108;SDS011;4590;51.462;6.692;2023-03-01T05:24:29;10.25;;;6.82;;
9108;SDS011;4590;51.462;6.692;2023-03-01T05:26:55;9.57;;;7.13;;
9108;SDS011;4590;51.462;6.692;2023-03-01T05:29:21;13.37;;;6.83;;
9108;SDS011;4590;51.462;6.692;2023-03-01T05:31:57;11.82;;;6.85;;
9108;SDS011;4590;51.462;6.692;2023-03-01T05:34:27;12.43;;;7.15;;
9108;SDS011;4590;51.462;6.692;2023-03-01T05:36:57;12.43;;;7.30;;
9108;SDS011;4590;51.462;6.692;2023-03-01T05:39:24;9.00;;;6.73;;
9108;SDS011;4590;51.462;6.692;2023-03-01T05:41:54;9.43;;;6.95;;
9108;SDS011;4590;51.462;6.692;2023-03-01T05:44:21;10.70;;;7.10;;
9108;SDS011;4590;51.462;6.692;2023-03-01T05:46:46;11.30;;;7.57;;
9108;SDS011;4590;51.462;6.692;2023-03-01T05:49:12;10.30;;;7.13;;
9108;SDS011;4590;51.462;6.692;2023-03-01T05:51:40;9.73;;;6.50;;
9108;SDS011;4590;51.462;6.692;2023-03-01T05:54:06;11.77;;;7.60;;
9108;SDS011;4590;51.462;6.692;2023-03-01T05:56:35;10.18;;;7.22;;
9108;SDS011;4590;51.462;6.692;2023-03-01T05:59:01;11.00;;;7.40;;
9108;SDS011;4590;51.462;6.692;2023-03-01T06:01:27;12.10;;;7.68;;
9108;SDS011;4590;51.462;6.692;2023-03-01T06:03:54;11.18;;;7.75;;
9108;SDS011;4590;51.462;6.692;2023-03-01T06:06:21;10.52;;;7.32;;
9108;SDS011;4590;51.462;6.692;2023-03-01T06:08:46;13.30;;;7.93;;
9108;SDS011;4590;51.462;6.692;2023-03-01T06:11:12;11.60;;;7.50;;
9108;SDS011;4590;51.462;6.692;2023-03-01T06:13:37;11.37;;;7.60;;
9108;SDS011;4590;51.462;6.692;2023-03-01T06:16:05;13.70;;;7.97;;
9108;SDS011;4590;51.462;6.692;2023-03-01T06:18:31;13.07;;;6.88;;
9108;SDS011;4590;51.462;6.692;2023-03-01T06:20:57;11.47;;;8.13;;
9108;SDS011;4590;51.462;6.692;2023-03-01T06:23:23;9.60;;;6.80;;
9108;SDS011;4590;51.462;6.692;2023-03-01T06:25:48;11.25;;;7.40;;
9108;SDS011;4590;51.462;6.692;2023-03-01T06:28:14;12.82;;;7.40;;
9108;SDS011;4590;51.462;6.692;2023-03-01T06:30:39;12.37;;;7.80;;
9108;SDS011;4590;51.462;6.692;2023-03-01T06:33:04;17.13;;;8.23;;
9108;SDS011;4590;51.462;6.692;2023-03-01T06:35:30;12.27;;;7.57;;
9108;SDS011;4590;51.462;6.692;2023-03-01T06:37:56;13.00;;;7.83;;
9108;SDS011;4590;51.462;6.692;2023-03-01T06:40:22;13.50;;;8.07;;
9108;SDS011;4590;51.462;6.692;2023-03-01T06:42:48;9.90;;;7.13;;
9108;SDS011;4590;51.462;6.692;2023-03-01T06:45:15;12.35;;;8.00;;
9108;SDS011;4590;51.462;6.692;2023-03-01T06:50:07;11.27;;;7.32;;
9108;SDS011;4590;51.462;6.692;2023-03-01T06:52:33;14.07;;;7.78;;
9108;SDS011;4590;51.462;6.692;2023-03-01T06:54:58;12.37;;;8.03;;
9108;SDS011;4590;51.462;6.692;2023-03-01T06:57:23;14.73;;;8.23;;
9108;SDS011;4590;51.462;6.692;2023-03-01T06:59:49;13.67;;;8.23;;
9108;SDS011;4590;51.462;6.692;2023-03-01T07:02:14;11.20;;;7.57;;
9108;SDS011;4590;51.462;6.692;2023-03-01T07:04:40;18.43;;;8.10;;
9108;SDS011;4590;51.462;6.692;2023-03-01T07:07:05;14.67;;;8.43;;
9108;SDS011;4590;51.462;6.692;2023-03-01T07:09:31;14.60;;;8.67;;
9108;SDS011;4590;51.462;6.692;2023-03-01T07:11:56;13.87;;;8.40;;
9108;SDS011;4590;51.462;6.692;2023-03-01T07:14:22;13.00;;;7.95;;
9108;SDS011;4590;51.462;6.692;2023-03-01T07:16:49;16.58;;;9.15;;
9108;SDS011;4590;51.462;6.692;2023-03-01T07:19:14;13.33;;;8.03;;
9108;SDS011;4590;51.462;6.692;2023-03-01T07:21:40;16.87;;;9.23;;
9108;SDS011;4590;51.462;6.692;2023-03-01T07:24:06;15.23;;;9.60;;
9108;SDS011;4590;51.462;6.692;2023-03-01T07:26:32;16.20;;;8.85;;
9108;SDS011;4590;51.462;6.692;2023-03-01T07:29:01;14.90;;;8.80;;
9108;SDS011;4590;51.462;6.692;2023-03-01T07:31:28;13.77;;;8.32;;
9108;SDS011;4590;51.462;6.692;2023-03-01T07:33:53;14.90;;;9.23;;
9108;SDS011;4590;51.462;6.692;2023-03-01T07:36:19;14.02;;;8.82;;
9108;SDS011;4590;51.462;6.692;2023-03-01T07:38:45;14.37;;;8.03;;
9108;SDS011;4590;51.462;6.692;2023-03-01T07:41:10;19.33;;;9.23;;
9108;SDS011;4590;51.462;6.692;2023-03-01T07:43:35;13.47;;;9.00;;
9108;SDS011;4590;51.462;6.692;2023-03-01T07:46:01;13.67;;;8.67;;
9108;SDS011;4590;51.462;6.692;2023-03-01T07:48:27;16.58;;;9.80;;
9108;SDS011;4590;51.462;6.692;2023-03-01T07:50:53;14.10;;;8.90;;
9108;SDS011;4590;51.462;6.692;2023-03-01T07:53:18;14.87;;;8.87;;
9108;SDS011;4590;51.462;6.692;2023-03-01T07:55:43;16.90;;;8.90;;
9108;SDS011;4590;51.462;6.692;2023-03-01T07:58:09;15.40;;;8.70;;
9108;SDS011;4590;51.462;6.692;2023-03-01T08:00:34;13.67;;;8.33;;
9108;SDS011;4590;51.462;6.692;2023-03-01T08:02:59;16.10;;;8.73;;
9108;SDS011;4590;51.462;6.692;2023-03-01T08:05:26;13.23;;;8.93;;
9108;SDS011;4590;51.462;6.692;2023-03-01T08:07:51;12.77;;;8.15;;
9108;SDS011;4590;51.462;6.692;2023-03-01T08:10:17;14.20;;;8.00;;
9108;SDS011;4590;51.462;6.692;2023-03-01T08:12:42;16.30;;;8.47;;
9108;SDS011;4590;51.462;6.692;2023-03-01T08:15:08;14.43;;;9.20;;
9108;SDS011;4590;51.462;6.692;2023-03-01T08:17:34;13.65;;;8.43;;
9108;SDS011;4590;51.462;6.692;2023-03-01T08:19:59;12.23;;;8.03;;
9108;SDS011;4590;51.462;6.692;2023-03-01T08:22:24;15.93;;;9.30;;
9108;SDS011;4590;51.462;6.692;2023-03-01T08:24:50;16.60;;;9.30;;
9108;SDS011;4590;51.462;6.692;2023-03-01T08:27:15;13.57;;;8.50;;
9108;SDS011;4590;51.462;6.692;2023-03-01T08:29:41;13.88;;;7.90;;
9108;SDS011;4590;51.462;6.692;2023-03-01T08:32:07;13.97;;;7.97;;
9108;SDS011;4590;51.462;6.692;2023-03-01T08:34:32;15.13;;;8.30;;
9108;SDS011;4590;51.462;6.692;2023-03-01T08:37:00;15.63;;;8.30;;
9108;SDS011;4590;51.462;6.692;2023-03-01T08:39:26;12.00;;;7.77;;
9108;SDS011;4590;51.462;6.692;2023-03-01T08:41:51;14.27;;;8.27;;
9108;SDS011;4590;51.462;6.692;2023-03-01T08:44:16;11.30;;;7.80;;
9108;SDS011;4590;51.462;6.692;2023-03-01T08:46:42;12.27;;;7.23;;
9108;SDS011;4590;51.462;6.692;2023-03-01T08:49:10;12.38;;;7.97;;
9108;SDS011;4590;51.462;6.692;2023-03-01T08:51:37;11.07;;;7.63;;
9108;SDS011;4590;51.462;6.692;2023-03-01T08:54:03;16.63;;;7.70;;
9108;SDS011;4590;51.462;6.692;2023-03-01T08:56:29;13.30;;;7.25;;
9108;SDS011;4590;51.462;6.692;2023-03-01T08:58:55;11.37;;;7.10;;
9108;SDS011;4590;51.462;6.692;2023-03-01T09:01:20;11.57;;;6.90;;
9108;SDS011;4590;51.462;6.692;2023-03-01T09:03:45;13.30;;;7.70;;
9108;SDS011;4590;51.462;6.692;2023-03-01T09:06:11;15.37;;;6.80;;
9108;SDS011;4590;51.462;6.692;2023-03-01T09:08:37;13.47;;;7.00;;
9108;SDS011;4590;51.462;6.692;2023-03-01T09:11:05;11.52;;;7.00;;
9108;SDS011;4590;51.462;6.692;2023-03-01T09:13:31;10.43;;;7.18;;
9108;SDS011;4590;51.462;6.692;2023-03-01T09:15:58;12.35;;;7.40;;
9108;SDS011;4590;51.462;6.692;2023-03-01T09:18:25;8.57;;;5.25;;
9108;SDS011;4590;51.462;6.692;2023-03-01T09:20:50;10.90;;;6.90;;
9108;SDS011;4590;51.462;6.692;2023-03-01T09:23:15;10.80;;;6.80;;
9108;SDS011;4590;51.462;6.692;2023-03-01T09:25:40;11.70;;;7.10;;
9108;SDS011;4590;51.462;6.692;2023-03-01T09:28:06;13.70;;;7.37;;
9108;SDS011;4590;51.462;6.692;2023-03-01T09:30:31;8.23;;;5.20;;
9108;SDS011;4590;51.462;6.692;2023-03-01T09:32:56;10.63;;;6.60;;
9108;SDS011;4590;51.462;6.692;2023-03-01T09:35:22;8.67;;;6.03;;
9108;SDS011;4590;51.462;6.692;2023-03-01T09:37:48;10.70;;;6.18;;
9108;SDS011;4590;51.462;6.692;2023-03-01T09:40:19;12.48;;;6.72;;
9108;SDS011;4590;51.462;6.692;2023-03-01T09:42:51;10.27;;;5.85;;
9108;SDS011;4590;51.462;6.692;2023-03-01T09:45:35;8.75;;;5.53;;
9108;SDS011;4590;51.462;6.692;2023-03-01T09:48:06;9.60;;;6.25;;
9108;SDS011;4590;51.462;6.692;2023-03-01T09:50:41;9.27;;;5.85;;
9108;SDS011;4590;51.462;6.692;2023-03-01T09:53:13;11.13;;;7.07;;
9108;SDS011;4590;51.462;6.692;2023-03-01T09:58:30;11.13;;;6.20;;
9108;SDS011;4590;51.462;6.692;2023-03-01T10:01:02;9.25;;;6.10;;
9108;SDS011;4590;51.462;6.692;2023-03-01T10:03:54;9.18;;;6.15;;
9108;SDS011;4590;51.462;6.692;2023-03-01T10:06:29;11.48;;;6.88;;
9108;SDS011;4590;51.462;6.692;2023-03-01T10:09:05;11.50;;;7.17;;
9108;SDS011;4590;51.462;6.692;2023-03-01T10:11:38;9.00;;;5.90;;
9108;SDS011;4590;51.462;6.692;2023-03-01T10:16:51;9.52;;;6.25;;
9108;SDS011;4590;51.462;6.692;2023-03-01T10:19:24;8.95;;;5.50;;
9108;SDS011;4590;51.462;6.692;2023-03-01T10:21:51;8.18;;;5.03;;
9108;SDS011;4590;51.462;6.692;2023-03-01T10:24:17;11.02;;;6.85;;
9108;SDS011;4590;51.462;6.692;2023-03-01T10:26:56;11.48;;;6.65;;
9108;SDS011;4590;51.462;6.692;2023-03-01T10:29:31;10.38;;;6.75;;
9108;SDS011;4590;51.462;6.692;2023-03-01T10:32:04;9.68;;;6.05;;
9108;SDS011;4590;51.462;6.692;2023-03-01T10:34:32;8.95;;;5.78;;
9108;SDS011;4590;51.462;6.692;2023-03-01T10:37:16;10.65;;;6.50;;
9108;SDS011;4590;51.462;6.692;2023-03-01T10:40:03;8.95;;;5.85;;
9108;SDS011;4590;51.462;6.692;2023-03-01T10:42:33;10.77;;;6.43;;
9108;SDS011;4590;51.462;6.692;2023-03-01T10:47:44;13.25;;;6.82;;
9108;SDS011;4590;51.462;6.692;2023-03-01T10:50:30;10.30;;;5.80;;
9108;SDS011;4590;51.462;6.692;2023-03-01T10:52:57;9.65;;;5.55;;
9108;SDS011;4590;51.462;6.692;2023-03-01T10:55:30;12.48;;;6.32;;
9108;SDS011;4590;51.462;6.692;2023-03-01T10:58:16;11.10;;;5.70;;
9108;SDS011;4590;51.462;6.692;2023-03-01T11:00:54;12.32;;;6.55;;
9108;SDS011;4590;51.462;6.692;2023-03-01T11:03:24;10.77;;;6.65;;
9108;SDS011;4590;51.462;6.692;2023-03-01T11:06:00;12.20;;;6.35;;
9108;SDS011;4590;51.462;6.692;2023-03-01T11:08:29;8.80;;;5.88;;
9108;SDS011;4590;51.462;6.692;2023-03-01T11:11:07;10.52;;;5.95;;
9108;SDS011;4590;51.462;6.692;2023-03-01T11:13:37;11.45;;;5.40;;
9108;SDS011;4590;51.462;6.692;2023-03-01T11:16:14;6.18;;;4.80;;
9108;SDS011;4590;51.462;6.692;2023-03-01T11:18:39;8.43;;;4.90;;
9108;SDS011;4590;51.462;6.692;2023-03-01T11:21:05;10.87;;;5.53;;
9108;SDS011;4590;51.462;6.692;2023-03-01T11:23:33;8.60;;;5.30;;
9108;SDS011;4590;51.462;6.692;2023-03-01T11:26:02;9.68;;;5.60;;
9108;SDS011;4590;51.462;6.692;2023-03-01T11:28:32;7.18;;;5.22;;
9108;SDS011;4590;51.462;6.692;2023-03-01T11:38:34;9.43;;;5.53;;
9108;SDS011;4590;51.462;6.692;2023-03-01T11:41:05;7.35;;;5.03;;
9108;SDS011;4590;51.462;6.692;2023-03-01T11:43:50;6.88;;;5.15;;
9108;SDS011;4590;51.462;6.692;2023-03-01T11:49:08;7.47;;;4.95;;
9108;SDS011;4590;51.462;6.692;2023-03-01T11:52:04;9.45;;;5.43;;
9108;SDS011;4590;51.462;6.692;2023-03-01T11:54:38;10.93;;;5.18;;
9108;SDS011;4590;51.462;6.692;2023-03-01T12:00:55;10.88;;;6.57;;
9108;SDS011;4590;51.462;6.692;2023-03-01T12:03:23;10.77;;;5.43;;
9108;SDS011;4590;51.462;6.692;2023-03-01T12:06:27;7.80;;;5.18;;
9108;SDS011;4590;51.462;6.692;2023-03-01T12:14:55;9.73;;;6.18;;
9108;SDS011;4590;51.462;6.692;2023-03-01T12:17:46;10.13;;;5.10;;
9108;SDS011;4590;51.462;6.692;2023-03-01T12:20:41;9.90;;;4.97;;
9108;SDS011;4590;51.462;6.692;2023-03-01T12:27:04;9.75;;;5.45;;
9108;SDS011;4590;51.462;6.692;2023-03-01T12:34:55;9.32;;;5.30;;
9108;SDS011;4590;51.462;6.692;2023-03-01T12:37:47;10.10;;;5.35;;
9108;SDS011;4590;51.462;6.692;2023-03-01T12:45:44;12.15;;;7.07;;
9108;SDS011;4590;51.462;6.692;2023-03-01T12:50:53;8.88;;;5.38;;
9108;SDS011;4590;51.462;6.692;2023-03-01T12:55:54;9.57;;;5.53;;
9108;SDS011;4590;51.462;6.692;2023-03-01T13:04:18;9.93;;;5.38;;
9108;SDS011;4590;51.462;6.692;2023-03-01T13:15:24;8.35;;;5.68;;
9108;SDS011;4590;51.462;6.692;2023-03-01T13:20:53;10.63;;;5.15;;
9108;SDS011;4590;51.462;6.692;2023-03-01T13:33:48;8.10;;;5.00;;
9108;SDS011;4590;51.462;6.692;2023-03-01T13:44:17;6.55;;;4.53;;
9108;SDS011;4590;51.462;6.692;2023-03-01T13:49:51;7.70;;;4.85;;
9108;SDS011;4590;51.462;6.692;2023-03-01T13:52:30;10.02;;;5.47;;
9108;SDS011;4590;51.462;6.692;2023-03-01T13:54:57;8.70;;;5.55;;
9108;SDS011;4590;51.462;6.692;2023-03-01T13:57:25;10.00;;;5.93;;
9108;SDS011;4590;51.462;6.692;2023-03-01T13:59:57;11.50;;;6.03;;
9108;SDS011;4590;51.462;6.692;2023-03-01T14:02:22;9.13;;;6.40;;
9108;SDS011;4590;51.462;6.692;2023-03-01T14:04:57;8.13;;;5.47;;
9108;SDS011;4590;51.462;6.692;2023-03-01T14:07:24;7.78;;;5.63;;
9108;SDS011;4590;51.462;6.692;2023-03-01T14:09:55;10.73;;;6.45;;
9108;SDS011;4590;51.462;6.692;2023-03-01T14:15:08;9.52;;;6.60;;
9108;SDS011;4590;51.462;6.692;2023-03-01T14:20:38;9.57;;;6.47;;
9108;SDS011;4590;51.462;6.692;2023-03-01T14:23:13;11.25;;;6.32;;
9108;SDS011;4590;51.462;6.692;2023-03-01T14:25:52;7.93;;;5.07;;
9108;SDS011;4590;51.462;6.692;2023-03-01T14:28:28;10.88;;;6.05;;
9108;SDS011;4590;51.462;6.692;2023-03-01T14:30:58;6.97;;;5.10;;
9108;SDS011;4590;51.462;6.692;2023-03-01T14:33:26;8.48;;;5.40;;
9108;SDS011;4590;51.462;6.692;2023-03-01T14:35:55;9.88;;;5.80;;
9108;SDS011;4590;51.462;6.692;2023-03-01T14:38:36;10.88;;;6.38;;
9108;SDS011;4590;51.462;6.692;2023-03-01T14:41:05;9.35;;;5.43;;
9108;SDS011;4590;51.462;6.692;2023-03-01T14:43:33;11.30;;;5.72;;
9108;SDS011;4590;51.462;6.692;2023-03-01T14:48:25;10.30;;;6.00;;
9108;SDS011;4590;51.462;6.692;2023-03-01T14:50:53;10.05;;;5.80;;
9108;SDS011;4590;51.462;6.692;2023-03-01T14:53:25;11.10;;;6.13;;
9108;SDS011;4590;51.462;6.692;2023-03-01T14:55:54;9.07;;;5.70;;
9108;SDS011;4590;51.462;6.692;2023-03-01T14:58:22;9.90;;;5.57;;
9108;SDS011;4590;51.462;6.692;2023-03-01T15:01:03;8.65;;;5.45;;
9108;SDS011;4590;51.462;6.692;2023-03-01T15:03:42;9.13;;;6.57;;
9108;SDS011;4590;51.462;6.692;2023-03-01T15:06:11;10.55;;;6.38;;
9108;SDS011;4590;51.462;6.692;2023-03-01T15:08:50;9.18;;;6.15;;
9108;SDS011;4590;51.462;6.692;2023-03-01T15:11:22;9.10;;;6.07;;
9108;SDS011;4590;51.462;6.692;2023-03-01T15:13:50;8.45;;;5.90;;
9108;SDS011;4590;51.462;6.692;2023-03-01T15:18:52;10.27;;;5.78;;
9108;SDS011;4590;51.462;6.692;2023-03-01T15:21:27;8.38;;;5.50;;
9108;SDS011;4590;51.462;6.692;2023-03-01T15:24:04;9.32;;;5.90;;
9108;SDS011;4590;51.462;6.692;2023-03-01T15:26:40;9.63;;;6.10;;
9108;SDS011;4590;51.462;6.692;2023-03-01T15:29:16;8.70;;;5.78;;
9108;SDS011;4590;51.462;6.692;2023-03-01T15:31:52;8.27;;;5.78;;
9108;SDS011;4590;51.462;6.692;2023-03-01T15:36:56;9.65;;;6.07;;
9108;SDS011;4590;51.462;6.692;2023-03-01T15:39:30;9.40;;;6.20;;
9108;SDS011;4590;51.462;6.692;2023-03-01T15:45:06;8.88;;;5.63;;
9108;SDS011;4590;51.462;6.692;2023-03-01T15:48:05;9.45;;;5.68;;
9108;SDS011;4590;51.462;6.692;2023-03-01T15:50:42;9.95;;;5.55;;
9108;SDS011;4590;51.462;6.692;2023-03-01T15:53:12;7.40;;;4.63;;
9108;SDS011;4590;51.462;6.692;2023-03-01T15:55:39;10.48;;;5.30;;
9108;SDS011;4590;51.462;6.692;2023-03-01T15:58:08;9.25;;;5.80;;
9108;SDS011;4590;51.462;6.692;2023-03-01T16:00:36;7.63;;;5.23;;
9108;SDS011;4590;51.462;6.692;2023-03-01T16:03:02;12.23;;;6.15;;
9108;SDS011;4590;51.462;6.692;2023-03-01T16:05:28;9.00;;;5.43;;
9108;SDS011;4590;51.462;6.692;2023-03-01T16:07:56;9.20;;;5.50;;
9108;SDS011;4590;51.462;6.692;2023-03-01T16:10:21;9.17;;;5.23;;
9108;SDS011;4590;51.462;6.692;2023-03-01T16:12:47;9.20;;;5.60;;
9108;SDS011;4590;51.462;6.692;2023-03-01T16:15:29;8.13;;;5.23;;
9108;SDS011;4590;51.462;6.692;2023-03-01T16:17:56;8.13;;;5.10;;
9108;SDS011;4590;51.462;6.692;2023-03-01T16:20:23;9.40;;;5.68;;
9108;SDS011;4590;51.462;6.692;2023-03-01T16:22:49;10.77;;;5.85;;
9108;SDS011;4590;51.462;6.692;2023-03-01T16:25:15;10.47;;;5.53;;
9108;SDS011;4590;51.462;6.692;2023-03-01T16:27:42;8.80;;;5.20;;
9108;SDS011;4590;51.462;6.692;2023-03-01T16:30:10;8.00;;;5.10;;
9108;SDS011;4590;51.462;6.692;2023-03-01T16:32:40;8.40;;;5.40;;
9108;SDS011;4590;51.462;6.692;2023-03-01T16:35:06;8.50;;;5.28;;
9108;SDS011;4590;51.462;6.692;2023-03-01T16:37:34;9.95;;;6.22;;
9108;SDS011;4590;51.462;6.692;2023-03-01T16:40:00;9.30;;;5.55;;
9108;SDS011;4590;51.462;6.692;2023-03-01T16:42:25;7.67;;;5.50;;
9108;SDS011;4590;51.462;6.692;2023-03-01T16:44:54;11.93;;;6.47;;
9108;SDS011;4590;51.462;6.692;2023-03-01T16:47:20;12.18;;;6.85;;
9108;SDS011;4590;51.462;6.692;2023-03-01T16:49:45;9.43;;;6.47;;
9108;SDS011;4590;51.462;6.692;2023-03-01T16:52:11;9.93;;;6.10;;
9108;SDS011;4590;51.462;6.692;2023-03-01T16:54:36;12.37;;;7.27;;
9108;SDS011;4590;51.462;6.692;2023-03-01T16:57:01;11.23;;;6.63;;
9108;SDS011;4590;51.462;6.692;2023-03-01T16:59:27;9.60;;;5.90;;
9108;SDS011;4590;51.462;6.692;2023-03-01T17:01:52;8.97;;;5.47;;
9108;SDS011;4590;51.462;6.692;2023-03-01T17:04:17;12.00;;;7.73;;
9108;SDS011;4590;51.462;6.692;2023-03-01T17:06:42;11.80;;;5.80;;
9108;SDS011;4590;51.462;6.692;2023-03-01T17:09:08;11.30;;;6.33;;
9108;SDS011;4590;51.462;6.692;2023-03-01T17:11:34;10.90;;;5.93;;